Time;durP1;ratioP1;P1;durP2;ratioP2;P2;SDS_P1;SDS_P2;PMS_P1;PMS_P2;Temp;Humidity;BMP_temperature;BMP_pressure;BME280_temperature;BME280_humidity;BME280_pressure;Samples;Min_cycle;Max_cycle;Signal;HPM_P1;HPM_P2
2023/12/17 00:00:08;;;;;;;29.08;6.72;;;;;;;;;;5003586;28;20030;-68
2023/12/17 00:02:54;;;;;;;24.98;5.25;;;;;;;;;;5006647;28;20026;-68
2023/12/17 00:05:40;;;;;;;22.35;5.72;;;;;;;;;;5002363;28;20033;-68
2023/12/17 00:08:25;;;;;;;34.55;7.55;;;;;;;;;;5013188;28;20021;-68
2023/12/17 00:11:11;;;;;;;24.77;5.53;;;;;;;;;;5006989;28;20084;-68
2023/12/17 00:13:57;;;;;;;18.75;6.22;;;;;;;;;;5013998;28;20541;-68
2023/12/17 00:16:42;;;;;;;32.60;6.68;;;;;;;;;;5011621;28;20455;-68
2023/12/17 00:19:28;;;;;;;21.25;5.80;;;;;;;;;;4995052;28;20061;-68
2023/12/17 00:22:13;;;;;;;13.20;5.70;;;;;;;;;;4993279;28;20030;-68
2023/12/17 00:24:59;;;;;;;25.67;5.35;;;;;;;;;;4999756;28;20034;-68
2023/12/17 00:27:47;;;;;;;23.00;6.15;;;;;;;;;;4992403;28;20053;-68
2023/12/17 00:30:33;;;;;;;23.20;5.35;;;;;;;;;;4997081;28;20026;-68
2023/12/17 00:33:19;;;;;;;21.40;5.22;;;;;;;;;;4992013;28;20165;-68
2023/12/17 00:36:05;;;;;;;29.63;4.88;;;;;;;;;;5002552;28;20085;-68
2023/12/17 00:38:50;;;;;;;26.83;6.28;;;;;;;;;;4995877;28;20019;-68
2023/12/17 00:41:36;;;;;;;20.50;5.20;;;;;;;;;;4993102;28;20065;-68
2023/12/17 00:44:21;;;;;;;26.35;4.75;;;;;;;;;;4995955;28;20026;-68
2023/12/17 00:47:07;;;;;;;18.52;5.60;;;;;;;;;;4991720;28;20026;-68
2023/12/17 00:49:53;;;;;;;26.73;5.55;;;;;;;;;;4999928;28;20057;-68
2023/12/17 00:52:39;;;;;;;26.20;5.40;;;;;;;;;;4993359;28;20022;-68
2023/12/17 00:55:24;;;;;;;26.90;5.15;;;;;;;;;;5000671;28;20014;-68
2023/12/17 00:58:10;;;;;;;24.42;4.95;;;;;;;;;;5012424;28;20573;-68
2023/12/17 01:00:55;;;;;;;22.88;4.88;;;;;;;;;;5010399;28;20030;-68
2023/12/17 01:03:41;;;;;;;24.70;5.15;;;;;;;;;;4994669;28;20018;-68
2023/12/17 01:06:27;;;;;;;27.73;6.63;;;;;;;;;;4992766;28;20026;-68
2023/12/17 01:09:12;;;;;;;22.45;5.35;;;;;;;;;;4993289;28;20026;-68
2023/12/17 01:12:02;;;;;;;18.45;5.00;;;;;;;;;;4992319;28;20026;-68
2023/12/17 01:14:48;;;;;;;21.27;4.47;;;;;;;;;;5010246;28;20096;-68
2023/12/17 01:17:34;;;;;;;26.15;6.15;;;;;;;;;;5004232;28;20038;-68
2023/12/17 01:20:19;;;;;;;15.48;5.10;;;;;;;;;;4992297;28;20026;-68
2023/12/17 01:23:05;;;;;;;15.55;4.70;;;;;;;;;;4993893;28;20407;-68
2023/12/17 01:25:50;;;;;;;35.13;7.03;;;;;;;;;;4992255;28;20113;-68
2023/12/17 01:28:36;;;;;;;28.40;5.13;;;;;;;;;;4992856;28;20030;-68
2023/12/17 01:31:22;;;;;;;20.67;5.75;;;;;;;;;;4993247;28;20041;-68
2023/12/17 01:34:08;;;;;;;20.40;5.25;;;;;;;;;;4992819;28;20026;-68
2023/12/17 01:36:53;;;;;;;29.02;5.32;;;;;;;;;;4992819;28;20026;-68
2023/12/17 01:39:39;;;;;;;23.33;4.75;;;;;;;;;;4992662;28;20018;-69
2023/12/17 01:42:24;;;;;;;15.45;4.82;;;;;;;;;;4997252;28;20033;-68
2023/12/17 01:45:10;;;;;;;20.42;5.40;;;;;;;;;;4995588;28;20037;-68
2023/12/17 01:47:56;;;;;;;23.00;4.93;;;;;;;;;;4996816;28;20022;-68
2023/12/17 01:50:42;;;;;;;26.75;6.00;;;;;;;;;;4996288;28;20042;-68
2023/12/17 01:53:28;;;;;;;20.40;5.68;;;;;;;;;;5008836;28;20018;-69
2023/12/17 01:56:15;;;;;;;30.13;5.22;;;;;;;;;;4996400;28;20034;-68
2023/12/17 01:59:01;;;;;;;18.10;4.93;;;;;;;;;;4996416;28;20030;-68
2023/12/17 02:01:48;;;;;;;19.35;5.47;;;;;;;;;;4995766;28;20033;-68
2023/12/17 02:04:33;;;;;;;29.80;5.72;;;;;;;;;;4995501;28;20431;-68
2023/12/17 02:07:19;;;;;;;20.35;4.05;;;;;;;;;;4996143;28;20030;-68
2023/12/17 02:10:06;;;;;;;32.20;4.78;;;;;;;;;;4996080;28;20120;-68
2023/12/17 02:12:51;;;;;;;31.77;5.40;;;;;;;;;;4996451;28;20502;-68
2023/12/17 02:15:37;;;;;;;19.58;6.68;;;;;;;;;;4996655;28;20412;-68
2023/12/17 02:18:23;;;;;;;23.20;5.20;;;;;;;;;;4995764;28;20027;-68
2023/12/17 02:21:09;;;;;;;29.13;7.15;;;;;;;;;;4996472;28;20066;-68
2023/12/17 02:23:54;;;;;;;20.27;4.90;;;;;;;;;;4996341;28;20018;-68
2023/12/17 02:26:41;;;;;;;18.92;4.68;;;;;;;;;;4995991;28;20166;-68
2023/12/17 02:29:27;;;;;;;20.40;5.28;;;;;;;;;;5007351;28;20084;-68
2023/12/17 02:32:14;;;;;;;23.05;5.20;;;;;;;;;;4995498;28;20033;-68
2023/12/17 02:34:59;;;;;;;18.90;4.95;;;;;;;;;;4996344;28;20026;-68
2023/12/17 02:37:45;;;;;;;16.63;5.30;;;;;;;;;;4996346;28;20443;-68
2023/12/17 02:40:31;;;;;;;24.05;5.75;;;;;;;;;;4995857;28;20527;-68
2023/12/17 02:43:16;;;;;;;26.50;6.28;;;;;;;;;;4995650;28;20096;-68
2023/12/17 02:46:02;;;;;;;20.20;5.15;;;;;;;;;;5007471;28;20022;-68
2023/12/17 02:48:47;;;;;;;12.75;4.85;;;;;;;;;;5002552;28;20057;-68
2023/12/17 02:51:33;;;;;;;24.08;6.25;;;;;;;;;;5008594;28;20380;-68
2023/12/17 02:54:19;;;;;;;16.45;6.03;;;;;;;;;;5015730;28;20049;-68
2023/12/17 02:57:05;;;;;;;22.00;5.93;;;;;;;;;;5014218;28;20379;-68
2023/12/17 02:59:52;;;;;;;22.55;5.35;;;;;;;;;;5014374;28;20100;-68
2023/12/17 03:02:38;;;;;;;21.90;5.22;;;;;;;;;;4999498;28;20028;-68
2023/12/17 03:05:23;;;;;;;20.33;5.57;;;;;;;;;;4994165;28;20026;-68
2023/12/17 03:08:09;;;;;;;36.10;6.05;;;;;;;;;;5005303;28;20029;-68
2023/12/17 03:10:54;;;;;;;29.98;7.15;;;;;;;;;;5013952;28;20060;-68
2023/12/17 03:13:40;;;;;;;34.08;6.10;;;;;;;;;;5013651;28;20026;-68
2023/12/17 03:16:27;;;;;;;28.25;6.47;;;;;;;;;;5015271;28;20034;-68
2023/12/17 03:19:12;;;;;;;19.85;5.22;;;;;;;;;;5013997;28;20109;-68
2023/12/17 03:21:58;;;;;;;27.30;5.38;;;;;;;;;;5015400;28;20022;-68
2023/12/17 03:24:43;;;;;;;35.70;5.57;;;;;;;;;;5013712;28;20025;-68
2023/12/17 03:27:29;;;;;;;32.97;6.50;;;;;;;;;;5015317;28;20053;-68
2023/12/17 03:30:15;;;;;;;24.92;4.70;;;;;;;;;;5013970;28;20034;-68
2023/12/17 03:33:01;;;;;;;19.88;5.18;;;;;;;;;;5016382;28;20045;-68
2023/12/17 03:35:47;;;;;;;28.80;5.75;;;;;;;;;;5010955;28;20026;-68
2023/12/17 03:38:32;;;;;;;33.25;4.90;;;;;;;;;;4997284;28;20033;-68
2023/12/17 03:41:26;;;;;;;32.80;7.70;;;;;;;;;;4994435;28;20030;-68
2023/12/17 03:44:11;;;;;;;20.17;5.18;;;;;;;;;;4992807;28;20023;-68
2023/12/17 03:46:57;;;;;;;21.20;5.50;;;;;;;;;;4992847;28;20026;-68
2023/12/17 03:49:43;;;;;;;25.45;5.28;;;;;;;;;;5011359;28;20507;-68
2023/12/17 03:52:30;;;;;;;17.85;6.20;;;;;;;;;;5013328;28;20104;-68
2023/12/17 03:55:16;;;;;;;27.65;5.80;;;;;;;;;;5011847;28;20056;-68
2023/12/17 03:58:01;;;;;;;14.93;5.30;;;;;;;;;;4999259;28;20400;-68
2023/12/17 04:00:47;;;;;;;24.67;5.15;;;;;;;;;;4993698;28;20026;-68
2023/12/17 04:03:33;;;;;;;20.88;4.65;;;;;;;;;;5002836;28;20113;-68
2023/12/17 04:06:19;;;;;;;17.30;4.80;;;;;;;;;;5011263;28;20113;-68
2023/12/17 04:09:04;;;;;;;14.85;5.00;;;;;;;;;;5013737;28;20033;-68
2023/12/17 04:11:50;;;;;;;26.55;4.60;;;;;;;;;;5014670;28;20491;-68
2023/12/17 04:14:36;;;;;;;23.27;5.20;;;;;;;;;;5010456;28;20030;-68
2023/12/17 04:17:22;;;;;;;23.23;5.40;;;;;;;;;;5013684;28;20038;-68
2023/12/17 04:20:08;;;;;;;37.60;6.15;;;;;;;;;;5012420;28;20022;-68
2023/12/17 04:22:54;;;;;;;21.25;4.88;;;;;;;;;;5013174;28;20685;-68
2023/12/17 04:25:39;;;;;;;25.33;5.80;;;;;;;;;;5013194;28;20033;-68
2023/12/17 04:28:25;;;;;;;15.57;5.20;;;;;;;;;;5013186;28;20053;-68
2023/12/17 04:31:10;;;;;;;29.30;6.18;;;;;;;;;;5013488;28;20033;-68
2023/12/17 04:33:56;;;;;;;20.35;5.30;;;;;;;;;;5013244;28;20072;-68
2023/12/17 04:36:42;;;;;;;26.30;5.72;;;;;;;;;;5012203;28;20030;-68
2023/12/17 04:39:28;;;;;;;21.13;5.72;;;;;;;;;;5013924;28;20056;-68
2023/12/17 04:42:14;;;;;;;21.70;6.55;;;;;;;;;;5007014;28;20108;-68
2023/12/17 04:45:00;;;;;;;15.80;5.53;;;;;;;;;;5012930;28;20049;-68
2023/12/17 04:47:45;;;;;;;23.08;5.45;;;;;;;;;;5010125;28;20495;-68
2023/12/17 04:50:31;;;;;;;33.03;6.15;;;;;;;;;;5013169;28;20057;-68
2023/12/17 04:53:17;;;;;;;24.15;5.25;;;;;;;;;;5011936;28;20092;-68
2023/12/17 04:56:04;;;;;;;26.08;5.75;;;;;;;;;;5013129;28;20105;-68
2023/12/17 04:58:49;;;;;;;22.27;5.75;;;;;;;;;;5010010;28;20030;-68
2023/12/17 05:01:35;;;;;;;23.38;5.13;;;;;;;;;;5010513;28;20022;-68
2023/12/17 05:04:20;;;;;;;26.23;6.07;;;;;;;;;;5012636;28;20494;-68
2023/12/17 05:07:06;;;;;;;24.13;5.22;;;;;;;;;;5003571;28;20022;-68
2023/12/17 05:09:52;;;;;;;27.55;6.28;;;;;;;;;;4993295;28;20034;-68
2023/12/17 05:12:38;;;;;;;24.88;6.63;;;;;;;;;;5002977;28;20855;-68
2023/12/17 05:15:24;;;;;;;16.90;5.22;;;;;;;;;;5011251;28;20044;-68
2023/12/17 05:18:09;;;;;;;13.60;6.57;;;;;;;;;;5011683;28;20403;-68
2023/12/17 05:20:55;;;;;;;24.90;7.50;;;;;;;;;;5013284;28;20018;-68
2023/12/17 05:23:40;;;;;;;23.00;7.15;;;;;;;;;;5011949;28;20014;-68
2023/12/17 05:26:26;;;;;;;33.10;6.07;;;;;;;;;;5012044;28;20034;-68
2023/12/17 05:29:12;;;;;;;21.55;5.75;;;;;;;;;;5012448;28;20022;-68
2023/12/17 05:31:57;;;;;;;21.23;5.60;;;;;;;;;;4995745;28;20503;-68
2023/12/17 05:34:43;;;;;;;25.08;6.57;;;;;;;;;;5004657;28;20030;-68
2023/12/17 05:37:28;;;;;;;24.23;5.65;;;;;;;;;;5000080;28;20027;-68
2023/12/17 05:40:14;;;;;;;20.55;5.75;;;;;;;;;;4992645;28;20102;-68
2023/12/17 05:43:00;;;;;;;30.67;7.13;;;;;;;;;;5006004;28;20026;-68
2023/12/17 05:45:45;;;;;;;14.20;5.93;;;;;;;;;;5011941;28;20406;-68
2023/12/17 05:48:31;;;;;;;26.77;7.43;;;;;;;;;;5011833;28;20399;-68
2023/12/17 05:51:17;;;;;;;16.17;5.25;;;;;;;;;;5012711;28;20126;-68
2023/12/17 05:54:02;;;;;;;24.95;6.15;;;;;;;;;;5012064;28;20018;-68
2023/12/17 05:56:48;;;;;;;25.80;5.80;;;;;;;;;;5011546;28;20022;-68
2023/12/17 05:59:34;;;;;;;25.27;6.55;;;;;;;;;;5012309;28;20076;-68
2023/12/17 06:02:19;;;;;;;30.73;5.63;;;;;;;;;;4992544;28;20030;-68
2023/12/17 06:05:06;;;;;;;13.88;5.63;;;;;;;;;;4991837;28;20029;-68
2023/12/17 06:07:51;;;;;;;25.05;6.65;;;;;;;;;;4998846;28;20030;-68
2023/12/17 06:10:38;;;;;;;14.85;5.40;;;;;;;;;;4992381;28;20076;-68
2023/12/17 06:13:23;;;;;;;18.88;6.38;;;;;;;;;;4992577;28;20062;-68
2023/12/17 06:16:09;;;;;;;24.73;8.35;;;;;;;;;;5011101;28;20159;-68
2023/12/17 06:18:55;;;;;;;16.98;5.43;;;;;;;;;;5004697;28;20037;-68
2023/12/17 06:21:41;;;;;;;21.55;5.65;;;;;;;;;;4992272;28;20471;-68
2023/12/17 06:24:26;;;;;;;24.60;6.43;;;;;;;;;;4999666;28;20045;-68
2023/12/17 06:27:16;;;;;;;21.23;6.20;;;;;;;;;;4995698;28;20033;-68
2023/12/17 06:30:02;;;;;;;19.90;5.68;;;;;;;;;;5012255;28;20025;-68
2023/12/17 06:32:47;;;;;;;24.05;5.60;;;;;;;;;;4996571;28;20108;-68
2023/12/17 06:35:33;;;;;;;28.30;5.13;;;;;;;;;;4997338;28;20032;-68
2023/12/17 06:38:19;;;;;;;14.73;4.82;;;;;;;;;;4996018;28;20027;-68
2023/12/17 06:41:04;;;;;;;18.15;5.60;;;;;;;;;;5007898;28;20022;-68
2023/12/17 06:43:50;;;;;;;18.98;5.80;;;;;;;;;;4995826;28;20495;-68
2023/12/17 06:46:35;;;;;;;23.25;6.43;;;;;;;;;;4995775;28;20194;-68
2023/12/17 06:49:21;;;;;;;20.77;7.47;;;;;;;;;;5008062;28;20018;-68
2023/12/17 06:52:07;;;;;;;30.42;6.82;;;;;;;;;;5015204;28;20018;-68
2023/12/17 06:54:52;;;;;;;18.20;4.70;;;;;;;;;;5014562;28;20061;-68
2023/12/17 06:57:38;;;;;;;17.40;6.13;;;;;;;;;;5014680;28;20076;-68
2023/12/17 07:00:24;;;;;;;21.10;6.93;;;;;;;;;;5012189;28;20399;-68
2023/12/17 07:03:10;;;;;;;22.42;6.45;;;;;;;;;;5007959;28;20109;-68
2023/12/17 07:05:55;;;;;;;21.10;6.32;;;;;;;;;;5014726;28;20029;-68
2023/12/17 07:08:41;;;;;;;16.40;5.22;;;;;;;;;;5016182;28;20029;-68
2023/12/17 07:11:27;;;;;;;16.15;5.68;;;;;;;;;;5009093;28;20050;-68
2023/12/17 07:14:12;;;;;;;25.85;5.90;;;;;;;;;;4995659;28;20175;-68
2023/12/17 07:16:58;;;;;;;22.45;5.90;;;;;;;;;;5004207;28;20529;-68
2023/12/17 07:19:44;;;;;;;29.50;5.60;;;;;;;;;;4996158;28;20030;-68
2023/12/17 07:22:29;;;;;;;18.65;5.55;;;;;;;;;;5030441;22;20099;-70
2023/12/17 07:25:19;;;;;;;16.92;5.07;;;;;;;;;;5052797;28;20029;-70
2023/12/17 07:28:04;;;;;;;24.83;5.50;;;;;;;;;;5052479;28;20024;-70
2023/12/17 07:30:50;;;;;;;20.83;5.68;;;;;;;;;;5053278;28;20024;-70
2023/12/17 07:33:35;;;;;;;26.58;5.07;;;;;;;;;;5055115;28;20052;-70
2023/12/17 07:36:21;;;;;;;15.82;4.95;;;;;;;;;;5055191;28;20021;-70
2023/12/17 07:39:07;;;;;;;26.77;4.95;;;;;;;;;;5052761;28;20118;-70
2023/12/17 07:41:53;;;;;;;15.20;5.85;;;;;;;;;;5053899;28;20047;-70
2023/12/17 07:44:39;;;;;;;23.48;5.30;;;;;;;;;;5053356;28;20371;-70
2023/12/17 07:47:26;;;;;;;19.55;5.75;;;;;;;;;;5053013;28;20021;-70
2023/12/17 07:50:11;;;;;;;31.95;5.38;;;;;;;;;;5053489;28;20028;-70
2023/12/17 07:52:57;;;;;;;29.88;5.38;;;;;;;;;;5052611;28;20024;-70
2023/12/17 07:55:43;;;;;;;26.73;5.68;;;;;;;;;;5055112;28;20406;-70
2023/12/17 07:58:31;;;;;;;26.00;6.32;;;;;;;;;;5053499;28;20024;-70
2023/12/17 08:01:16;;;;;;;24.60;6.00;;;;;;;;;;5052024;28;20483;-70
2023/12/17 08:04:02;;;;;;;23.83;5.45;;;;;;;;;;5053622;28;20048;-70
2023/12/17 08:06:48;;;;;;;27.42;5.63;;;;;;;;;;5053420;28;20104;-70
2023/12/17 08:09:35;;;;;;;17.45;4.45;;;;;;;;;;5052275;28;20439;-71
2023/12/17 08:12:20;;;;;;;23.20;5.25;;;;;;;;;;5051942;28;20028;-70
2023/12/17 08:15:06;;;;;;;25.02;6.47;;;;;;;;;;5054456;28;20025;-70
2023/12/17 08:17:52;;;;;;;24.67;5.43;;;;;;;;;;5052244;28;20029;-70
2023/12/17 08:20:37;;;;;;;23.70;7.13;;;;;;;;;;5052761;28;20028;-70
2023/12/17 08:23:25;;;;;;;12.63;5.15;;;;;;;;;;5053588;28;20103;-70
2023/12/17 08:26:11;;;;;;;29.65;6.18;;;;;;;;;;5053146;28;20079;-70
2023/12/17 08:28:56;;;;;;;19.77;4.65;;;;;;;;;;5052349;28;20103;-72
2023/12/17 08:31:44;;;;;;;13.98;4.75;;;;;;;;;;5053202;28;20027;-70
2023/12/17 08:34:31;;;;;;;16.95;5.32;;;;;;;;;;5051677;28;20391;-70
2023/12/17 08:37:17;;;;;;;24.98;5.90;;;;;;;;;;5051396;28;20086;-70
2023/12/17 08:40:03;;;;;;;13.25;4.63;;;;;;;;;;5052506;28;20044;-70
2023/12/17 08:42:49;;;;;;;20.58;6.00;;;;;;;;;;5051632;28;20082;-70
2023/12/17 08:45:35;;;;;;;27.63;5.50;;;;;;;;;;5054008;28;20494;-70
2023/12/17 08:48:21;;;;;;;19.52;5.22;;;;;;;;;;5050747;28;20028;-70
2023/12/17 08:51:07;;;;;;;29.77;5.95;;;;;;;;;;5052388;28;20052;-70
2023/12/17 08:53:52;;;;;;;22.05;5.72;;;;;;;;;;5052970;28;20447;-70
2023/12/17 08:56:39;;;;;;;20.00;5.75;;;;;;;;;;5051616;28;20032;-71
2023/12/17 08:59:25;;;;;;;24.75;6.63;;;;;;;;;;5052594;28;20390;-70
2023/12/17 09:02:10;;;;;;;22.02;7.50;;;;;;;;;;5053609;28;20122;-70
2023/12/17 09:04:57;;;;;;;26.35;6.07;;;;;;;;;;5053436;28;20071;-70
2023/12/17 09:07:42;;;;;;;23.00;6.25;;;;;;;;;;5053835;28;20520;-70
2023/12/17 09:10:28;;;;;;;23.27;7.13;;;;;;;;;;5052022;28;20024;-70
2023/12/17 09:13:14;;;;;;;26.25;6.32;;;;;;;;;;5052875;28;20021;-70
2023/12/17 09:15:59;;;;;;;24.02;7.10;;;;;;;;;;5053241;28;20025;-70
2023/12/17 09:18:47;;;;;;;25.92;7.22;;;;;;;;;;5052650;28;20111;-70
2023/12/17 09:21:32;;;;;;;24.65;7.68;;;;;;;;;;5050362;28;20371;-70
2023/12/17 09:24:18;;;;;;;19.25;6.97;;;;;;;;;;5052729;28;20107;-70
2023/12/17 09:27:04;;;;;;;28.50;7.80;;;;;;;;;;5050041;28;20417;-70
2023/12/17 09:29:49;;;;;;;21.13;6.80;;;;;;;;;;5052303;28;20108;-70
2023/12/17 09:32:35;;;;;;;25.42;6.93;;;;;;;;;;5051875;28;20029;-71
2023/12/17 09:35:21;;;;;;;24.05;6.20;;;;;;;;;;5051035;28;20490;-70
2023/12/17 09:38:07;;;;;;;26.45;6.50;;;;;;;;;;5053402;28;20548;-70
2023/12/17 09:40:52;;;;;;;26.90;7.05;;;;;;;;;;5050746;28;20520;-70
2023/12/17 09:43:38;;;;;;;16.30;6.57;;;;;;;;;;5051821;28;20028;-70
2023/12/17 09:46:24;;;;;;;26.23;5.78;;;;;;;;;;5053240;28;20057;-70
2023/12/17 09:49:10;;;;;;;19.00;6.25;;;;;;;;;;5050925;28;20025;-71
2023/12/17 09:52:01;;;;;;;26.00;7.38;;;;;;;;;;5050916;28;20036;-71
2023/12/17 09:54:49;;;;;;;24.98;7.82;;;;;;;;;;5050639;28;20029;-70
2023/12/17 09:57:34;;;;;;;29.88;8.73;;;;;;;;;;5051108;28;20028;-70
2023/12/17 10:00:20;;;;;;;31.02;7.93;;;;;;;;;;5051750;28;20057;-70
2023/12/17 10:03:08;;;;;;;31.67;7.97;;;;;;;;;;5056272;28;20047;-71
2023/12/17 10:05:54;;;;;;;24.88;8.73;;;;;;;;;;5054138;28;20494;-70
2023/12/17 10:08:39;;;;;;;27.35;8.57;;;;;;;;;;5055293;28;20036;-71
2023/12/17 10:11:26;;;;;;;31.15;10.50;;;;;;;;;;5055867;28;20025;-70
2023/12/17 10:14:22;;;;;;;31.52;8.65;;;;;;;;;;5055660;28;20068;-70
2023/12/17 10:17:07;;;;;;;28.30;9.93;;;;;;;;;;5054595;28;20068;-70
2023/12/17 10:19:53;;;;;;;29.27;9.02;;;;;;;;;;5049590;28;20481;-70
2023/12/17 10:22:39;;;;;;;32.67;8.63;;;;;;;;;;5038168;28;20033;-70
2023/12/17 10:25:25;;;;;;;21.75;7.10;;;;;;;;;;5041096;28;20514;-71
2023/12/17 10:28:12;;;;;;;32.33;9.23;;;;;;;;;;5053830;28;20128;-70
2023/12/17 10:30:58;;;;;;;25.27;7.60;;;;;;;;;;5036997;28;20550;-70
2023/12/17 10:33:58;;;;;;;29.05;9.38;;;;;;;;;;5033786;28;20060;-70
2023/12/17 10:36:47;;;;;;;25.15;7.93;;;;;;;;;;5040561;28;20030;-71
2023/12/17 10:39:33;;;;;;;33.42;8.40;;;;;;;;;;5035030;28;20052;-71
2023/12/17 10:42:19;;;;;;;32.25;10.23;;;;;;;;;;5042131;28;20417;-70
2023/12/17 10:45:07;;;;;;;24.88;8.43;;;;;;;;;;5021395;28;20026;-70
2023/12/17 10:47:56;;;;;;;18.92;8.23;;;;;;;;;;5033119;28;20406;-70
2023/12/17 10:50:42;;;;;;;34.38;9.00;;;;;;;;;;5032592;28;20433;-70
2023/12/17 10:53:28;;;;;;;33.47;8.82;;;;;;;;;;5052654;28;20039;-70
2023/12/17 10:56:14;;;;;;;30.55;9.32;;;;;;;;;;5055585;28;20112;-70
2023/12/17 10:59:02;;;;;;;29.48;8.18;;;;;;;;;;5052679;28;20079;-70
2023/12/17 11:01:49;;;;;;;22.63;8.43;;;;;;;;;;5054454;28;20124;-70
2023/12/17 11:04:34;;;;;;;22.70;7.15;;;;;;;;;;5021198;28;20017;-71
2023/12/17 11:07:21;;;;;;;27.10;8.40;;;;;;;;;;5033362;28;20159;-70
2023/12/17 11:10:07;;;;;;;26.15;7.07;;;;;;;;;;5034383;28;20018;-71
2023/12/17 11:12:54;;;;;;;24.95;7.78;;;;;;;;;;5031879;28;20549;-71
2023/12/17 11:15:40;;;;;;;25.23;7.00;;;;;;;;;;5034244;28;20037;-70
2023/12/17 11:18:42;;;;;;;33.03;8.07;;;;;;;;;;5035480;28;20080;-71
2023/12/17 11:21:28;;;;;;;26.75;7.78;;;;;;;;;;5041347;28;20494;-70
2023/12/17 11:24:13;;;;;;;31.52;8.25;;;;;;;;;;5041935;28;20031;-70
2023/12/17 11:26:59;;;;;;;30.77;10.23;;;;;;;;;;5052069;28;20021;-70
2023/12/17 11:29:44;;;;;;;27.23;9.70;;;;;;;;;;5040804;28;20490;-70
2023/12/17 11:32:30;;;;;;;31.85;8.10;;;;;;;;;;5045938;28;20059;-71
2023/12/17 11:35:16;;;;;;;28.38;7.10;;;;;;;;;;5046945;28;20029;-71
2023/12/17 11:38:03;;;;;;;24.52;8.50;;;;;;;;;;5047537;28;20031;-71
2023/12/17 11:40:49;;;;;;;27.30;8.23;;;;;;;;;;5052560;28;20516;-70
2023/12/17 11:43:34;;;;;;;23.48;8.07;;;;;;;;;;5053053;28;20032;-73
2023/12/17 11:46:20;;;;;;;21.83;8.35;;;;;;;;;;5054338;28;20116;-72
2023/12/17 11:49:05;;;;;;;38.72;9.52;;;;;;;;;;5045893;28;20080;-70
2023/12/17 11:51:52;;;;;;;36.35;9.18;;;;;;;;;;5033133;28;20022;-71
2023/12/17 11:54:38;;;;;;;31.75;7.55;;;;;;;;;;5033025;28;20403;-71
2023/12/17 11:57:23;;;;;;;37.97;9.10;;;;;;;;;;5031775;28;20071;-71
2023/12/17 12:00:12;;;;;;;34.95;10.23;;;;;;;;;;5037933;28;20017;-71
2023/12/17 12:02:57;;;;;;;29.55;9.50;;;;;;;;;;5053380;28;20029;-71
2023/12/17 12:05:43;;;;;;;33.42;11.95;;;;;;;;;;5050951;28;20025;-71
2023/12/17 12:08:42;;;;;;;39.45;11.82;;;;;;;;;;5051843;28;20024;-72
2023/12/17 12:11:33;;;;;;;35.72;11.30;;;;;;;;;;5051863;28;20033;-71
2023/12/17 12:14:19;;;;;;;46.35;12.43;;;;;;;;;;5052347;28;20402;-72
2023/12/17 12:17:05;;;;;;;42.60;14.02;;;;;;;;;;5051436;28;20478;-72
2023/12/17 12:19:50;;;;;;;36.22;11.70;;;;;;;;;;5050103;28;20564;-71
2023/12/17 12:22:37;;;;;;;35.40;12.15;;;;;;;;;;5049018;28;20028;-72
2023/12/17 12:25:23;;;;;;;32.85;10.85;;;;;;;;;;5032623;28;20108;-72
2023/12/17 12:28:19;;;;;;;32.53;10.05;;;;;;;;;;5032234;28;20029;-73
2023/12/17 12:31:08;;;;;;;30.38;9.98;;;;;;;;;;5033413;28;20026;-72
2023/12/17 12:33:59;;;;;;;34.75;10.95;;;;;;;;;;5032960;28;20064;-72
2023/12/17 12:36:46;;;;;;;25.70;10.10;;;;;;;;;;5046762;28;20052;-73
2023/12/17 12:39:45;;;;;;;28.98;8.77;;;;;;;;;;5052627;28;20028;-73
2023/12/17 12:42:31;;;;;;;18.20;7.55;;;;;;;;;;5051840;28;20115;-75
2023/12/17 12:45:17;;;;;;;19.65;8.13;;;;;;;;;;5051672;28;20025;-74
2023/12/17 12:48:03;;;;;;;28.27;9.32;;;;;;;;;;5053829;28;20075;-74
2023/12/17 12:50:49;;;;;;;22.67;8.02;;;;;;;;;;5043037;28;20039;-74
2023/12/17 12:53:35;;;;;;;31.08;9.27;;;;;;;;;;5050150;28;20031;-74
2023/12/17 12:56:20;;;;;;;23.67;7.65;;;;;;;;;;5050324;28;20029;-74
2023/12/17 12:59:06;;;;;;;32.50;8.75;;;;;;;;;;5050963;28;20505;-70
2023/12/17 13:01:54;;;;;;;27.45;7.85;;;;;;;;;;5035949;28;20034;-70
2023/12/17 13:04:41;;;;;;;36.42;7.43;;;;;;;;;;5031787;28;20040;-70
2023/12/17 13:07:27;;;;;;;35.83;7.25;;;;;;;;;;5041385;28;20032;-70
2023/12/17 13:10:13;;;;;;;35.35;8.88;;;;;;;;;;5050687;28;20471;-70
2023/12/17 13:12:59;;;;;;;34.58;7.88;;;;;;;;;;5039569;28;20039;-70
2023/12/17 13:15:44;;;;;;;28.63;7.95;;;;;;;;;;5031415;28;20032;-71
2023/12/17 13:18:30;;;;;;;23.42;6.78;;;;;;;;;;5034755;28;20514;-70
2023/12/17 13:21:16;;;;;;;42.35;7.88;;;;;;;;;;5035823;28;20036;-70
2023/12/17 13:24:01;;;;;;;37.83;10.20;;;;;;;;;;5049050;28;20025;-71
2023/12/17 13:26:47;;;;;;;29.92;7.13;;;;;;;;;;5101483;22;20048;-68
2023/12/17 13:29:33;;;;;;;35.10;6.50;;;;;;;;;;5052031;28;20028;-68
2023/12/17 13:32:18;;;;;;;46.72;8.77;;;;;;;;;;5046335;28;20025;-68
2023/12/17 13:35:04;;;;;;;26.08;5.80;;;;;;;;;;5054561;28;20021;-68
2023/12/17 13:37:51;;;;;;;29.10;7.40;;;;;;;;;;5036748;28;20029;-68
2023/12/17 13:40:36;;;;;;;31.38;7.65;;;;;;;;;;5039056;28;20104;-68
2023/12/17 13:43:22;;;;;;;23.52;7.40;;;;;;;;;;5033603;28;20019;-68
2023/12/17 13:46:08;;;;;;;35.95;8.27;;;;;;;;;;5038527;28;20028;-68
2023/12/17 13:48:53;;;;;;;40.97;9.00;;;;;;;;;;5029891;28;20030;-68
2023/12/17 13:51:39;;;;;;;33.47;8.45;;;;;;;;;;5019237;28;20028;-68
2023/12/17 13:54:24;;;;;;;26.48;7.75;;;;;;;;;;5023994;28;20022;-68
2023/12/17 13:57:10;;;;;;;40.13;6.97;;;;;;;;;;5038636;28;20036;-68
2023/12/17 13:59:57;;;;;;;33.60;7.68;;;;;;;;;;5037880;28;20033;-68
2023/12/17 14:02:44;;;;;;;38.63;7.45;;;;;;;;;;5037268;28;20021;-68
2023/12/17 14:05:29;;;;;;;27.73;7.35;;;;;;;;;;5037477;28;20025;-68
2023/12/17 14:08:15;;;;;;;45.47;8.27;;;;;;;;;;5036292;28;20056;-68
2023/12/17 14:11:01;;;;;;;42.47;7.85;;;;;;;;;;5038173;28;20025;-68
2023/12/17 14:13:46;;;;;;;33.17;7.30;;;;;;;;;;5034308;28;20380;-68
2023/12/17 14:16:32;;;;;;;43.30;6.85;;;;;;;;;;5031231;28;20022;-68
2023/12/17 14:19:18;;;;;;;31.35;8.25;;;;;;;;;;5038394;28;20136;-68
2023/12/17 14:22:04;;;;;;;38.90;7.38;;;;;;;;;;5037976;28;20409;-68
2023/12/17 14:24:50;;;;;;;32.45;6.97;;;;;;;;;;5038365;28;20482;-68
2023/12/17 14:27:38;;;;;;;35.42;7.97;;;;;;;;;;5031227;28;20030;-68
2023/12/17 14:30:24;;;;;;;34.25;6.47;;;;;;;;;;5030973;28;20026;-68
2023/12/17 14:33:10;;;;;;;27.33;6.57;;;;;;;;;;5030427;28;20375;-69
2023/12/17 14:35:55;;;;;;;35.72;7.32;;;;;;;;;;5037844;28;20021;-68
2023/12/17 14:38:41;;;;;;;42.58;7.60;;;;;;;;;;5019945;28;20112;-68
2023/12/17 14:41:27;;;;;;;25.10;5.85;;;;;;;;;;5028198;28;20445;-68
2023/12/17 14:44:12;;;;;;;42.25;8.25;;;;;;;;;;5037642;28;20026;-68
2023/12/17 14:46:59;;;;;;;53.63;11.02;;;;;;;;;;5034241;28;20523;-68
2023/12/17 14:49:44;;;;;;;48.00;8.68;;;;;;;;;;5027409;28;20025;-68
2023/12/17 14:52:30;;;;;;;30.13;9.70;;;;;;;;;;5016625;28;20027;-68
2023/12/17 14:55:16;;;;;;;36.10;7.03;;;;;;;;;;5032833;28;20029;-68
2023/12/17 14:58:07;;;;;;;36.15;8.63;;;;;;;;;;5034172;28;20461;-68
2023/12/17 15:00:53;;;;;;;29.50;8.10;;;;;;;;;;5033589;28;20033;-68
2023/12/17 15:03:38;;;;;;;41.88;8.52;;;;;;;;;;5035616;28;20017;-68
2023/12/17 15:06:24;;;;;;;43.58;8.15;;;;;;;;;;5033329;28;20387;-68
2023/12/17 15:09:11;;;;;;;47.15;8.52;;;;;;;;;;5035337;28;20033;-68
2023/12/17 15:11:57;;;;;;;39.72;8.13;;;;;;;;;;5031108;28;20043;-68
2023/12/17 15:14:42;;;;;;;42.72;8.32;;;;;;;;;;5033499;28;20443;-68
2023/12/17 15:17:28;;;;;;;45.63;9.27;;;;;;;;;;5029865;28;20022;-68
2023/12/17 15:20:13;;;;;;;35.78;8.73;;;;;;;;;;5034400;28;20028;-68
2023/12/17 15:22:59;;;;;;;34.80;8.27;;;;;;;;;;5034182;28;20030;-68
2023/12/17 15:25:45;;;;;;;29.27;10.23;;;;;;;;;;5034919;28;20152;-68
2023/12/17 15:28:30;;;;;;;46.08;8.00;;;;;;;;;;5034920;28;20025;-68
2023/12/17 15:31:16;;;;;;;27.58;8.52;;;;;;;;;;5034349;28;20130;-68
2023/12/17 15:34:01;;;;;;;25.60;8.48;;;;;;;;;;5034613;28;20091;-68
2023/12/17 15:36:47;;;;;;;41.85;8.27;;;;;;;;;;5033540;28;20113;-68
2023/12/17 15:39:33;;;;;;;36.83;10.18;;;;;;;;;;5034934;28;20490;-67
2023/12/17 15:42:19;;;;;;;46.92;8.63;;;;;;;;;;5034645;28;20030;-68
2023/12/17 15:45:05;;;;;;;32.58;8.38;;;;;;;;;;5033434;28;20391;-68
2023/12/17 15:47:51;;;;;;;53.08;8.50;;;;;;;;;;5031331;28;20025;-67
2023/12/17 15:50:36;;;;;;;28.70;6.88;;;;;;;;;;5030993;28;20025;-67
2023/12/17 15:53:22;;;;;;;32.80;8.60;;;;;;;;;;5021032;28;20041;-67
2023/12/17 15:56:08;;;;;;;36.17;8.75;;;;;;;;;;5031109;28;20108;-67
2023/12/17 15:58:54;;;;;;;45.15;10.10;;;;;;;;;;5023999;28;20026;-67
2023/12/17 16:01:39;;;;;;;28.45;7.38;;;;;;;;;;5033509;28;20032;-67
2023/12/17 16:04:25;;;;;;;31.95;8.05;;;;;;;;;;5033431;28;20026;-67
2023/12/17 16:07:11;;;;;;;41.72;10.40;;;;;;;;;;5034884;28;20033;-67
2023/12/17 16:09:57;;;;;;;43.88;10.13;;;;;;;;;;5033751;28;20109;-67
2023/12/17 16:12:43;;;;;;;44.53;9.02;;;;;;;;;;5035496;28;20025;-67
2023/12/17 16:15:29;;;;;;;49.45;9.25;;;;;;;;;;5033968;28;20030;-67
2023/12/17 16:18:14;;;;;;;46.67;8.68;;;;;;;;;;5032639;28;20025;-67